Latest Weather Observations for Melbourne Airport

IDV60801

Issued at 4:32 am EST Monday 24 July 2017 (issued every 30 minutes, with the page automatically refreshed every 10 minutes)

About weather observations | Map of weather stations | Latest weather observations for VIC | Other Formats
Station Details ID: 086282 Name: MELBOURNE AIRPORT Lat: -37.67 Lon: 144.83 Height: 113.4 m
Data from the previous 72 hours. | See also: Recent months at Melbourne Airport
Date/Time
EST
Temp
°C
App
Temp
°C
Dew
Point
°C
Rel
Hum
%
Delta-T
°C
Wind Press
QNH
hPa
Press
MSL
hPa
Rain since
9am
mm
Dir  Spd
km/h
Gust
km/h
Spd
kts
Gust
kts
24/04:00am 6.8 2.9 5.5 91 0.6 NNW 15 17 8 9 1017.5 1017.7 3.8
24/03:30am 7.2 3.4 5.6 89 0.7 NW 15 17 8 9 1017.3 1017.5 3.8
24/03:00am 7.4 3.7 6.1 91 0.6 NNW 15 17 8 9 1017.3 1017.5 3.8
24/02:30am 8.5 5.8 7.2 91 0.6 NW 11 15 6 8 1017.3 1017.5 3.8
24/02:00am 8.5 5.4 7.2 91 0.6 WNW 13 17 7 9 1017.0 1017.2 3.8
24/01:30am 8.6 5.4 6.9 89 0.8 WNW 13 17 7 9 1016.7 1016.9 3.8
24/01:00am 8.1 4.0 6.1 87 0.9 WNW 17 20 9 11 1016.8 1017.0 3.8
24/12:30am 8.6 5.3 6.4 86 1.0 NW 13 17 7 9 1016.8 1017.0 3.8
24/12:00am 7.8 5.2 6.0 88 0.8 NW 9 15 5 8 1016.7 1016.9 3.8
 
Date/Time
EST
Temp
°C
App
Temp
°C
Dew
Point
°C
Rel
Hum
%
Delta-T
°C
Wind Press
QNH
hPa
Press
MSL
hPa
Rain since
9am
mm
Dir  Spd
km/h
Gust
km/h
Spd
kts
Gust
kts
23/11:30pm 6.8 3.7 5.5 91 0.6 NW 11 13 6 7 1016.5 1016.7 3.8
23/11:00pm 8.1 4.4 6.1 87 0.9 WNW 15 19 8 10 1016.4 1016.6 3.8
23/10:30pm 8.8 5.1 6.4 85 1.1 NW 15 19 8 10 1016.5 1016.7 3.8
23/10:00pm 9.3 6.1 7.0 85 1.1 NNW 13 17 7 9 1016.3 1016.5 3.8
23/09:30pm 9.5 6.0 7.2 85 1.1 WNW 15 20 8 11 1016.0 1016.2 3.8
23/09:00pm 8.0 4.7 6.5 90 0.7 WNW 13 15 7 8 1015.7 1015.9 3.8
23/08:30pm 9.7 6.2 7.0 83 1.3 WNW 15 22 8 12 1015.6 1015.8 3.8
23/08:00pm 9.4 5.5 6.9 84 1.2 WNW 17 22 9 12 1015.2 1015.4 3.8
23/07:30pm 9.6 6.8 7.1 84 1.2 NW 11 13 6 7 1014.9 1015.1 3.4
23/07:00pm 10.1 7.6 6.7 79 1.6 NW 9 15 5 8 1014.5 1014.7 3.4
23/06:30pm 9.7 6.5 7.0 83 1.3 NNW 13 15 7 8 1014.0 1014.2 3.4
23/06:00pm 9.6 6.5 7.3 85 1.1 NNW 13 17 7 9 1013.7 1013.9 3.4
23/05:30pm 10.4 6.5 7.0 79 1.6 WNW 17 24 9 13 1013.2 1013.4 3.4
23/05:00pm 10.8 6.8 8.4 85 1.2 W 19 26 10 14 1013.0 1013.2 3.4
23/04:30pm 10.6 6.2 8.8 89 0.9 W 22 32 12 17 1012.8 1013.0 3.4
23/04:00pm 11.0 7.6 9.2 89 0.9 W 17 26 9 14 1012.3 1012.5 2.4
23/03:30pm 11.3 8.2 8.9 85 1.2 NW 15 19 8 10 1011.9 1012.1 1.8
23/03:09pm 11.2 7.7 8.8 85 1.2 NNW 17 22 9 12 1011.8 1012.0 0.8
23/03:00pm 12.2 8.5 7.9 75 2.1 NNW 17 28 9 15 1011.6 1011.8 0.2
23/02:30pm 13.3 8.2 6.2 62 3.4 NNW 22 32 12 17 1011.3 1011.4 0.0
23/02:00pm 13.2 6.9 5.6 60 3.6 NNW 28 39 15 21 1011.2 1011.3 0.0
23/01:30pm 14.3 7.6 5.7 56 4.1 NNW 30 37 16 20 1011.4 1011.6 0.0
23/01:00pm 13.8 7.1 5.6 57 3.9 NNW 30 44 16 24 1011.6 1011.8 0.0
23/12:30pm 13.0 7.0 5.3 59 3.6 N 26 33 14 18 1012.0 1012.2 0.0
23/12:00pm 11.2 3.5 3.5 59 3.4 N 33 43 18 23 1012.5 1012.7 0.0
23/11:30am 10.9 2.8 3.4 60 3.3 N 35 44 19 24 1013.0 1013.2 0.0
23/11:00am 10.5 2.0 3.2 60 3.2 N 37 52 20 28 1013.2 1013.4 0.0
23/10:30am 10.2 1.2 2.5 59 3.3 N 39 48 21 26 1013.3 1013.5 0.0
23/10:00am 9.6 0.9 2.0 59 3.2 N 37 44 20 24 1013.3 1013.5 0.0
23/09:30am 8.6 -0.6 1.0 59 3.1 N 39 48 21 26 1013.2 1013.4 0.0
23/09:00am 8.1 -0.4 0.7 59 3.0 N 35 41 19 22 1013.2 1013.4 0.0
23/08:30am 7.2 -1.0 0.4 62 2.7 N 33 39 18 21 1013.2 1013.4 0.0
23/08:00am 7.1 -1.5 0.0 60 2.8 N 35 43 19 23 1012.8 1013.0 0.0
23/07:34am 6.8 -2.2 -0.1 61 2.7 N 37 56 20 30 1012.6 1012.8 0.0
23/07:30am 6.9 -2.2 -0.3 60 2.8 N 37 48 20 26 1012.5 1012.7 0.0
23/07:00am 6.8 -2.2 -0.1 61 2.7 N 37 46 20 25 1012.4 1012.6 0.0
23/06:30am 6.7 -2.7 -0.2 61 2.7 N 39 48 21 26 1011.9 1012.1 0.0
23/06:00am 6.9 -2.5 -0.3 60 2.8 N 39 50 21 27 1011.7 1011.9 0.0
23/05:30am 6.7 -3.1 0.1 63 2.6 N 41 52 22 28 1011.6 1011.8 0.0
23/05:00am 7.4 -2.8 -0.3 58 3.0 N 43 54 23 29 1011.6 1011.8 0.0
23/04:30am 7.5 -2.9 -0.1 58 3.0 N 44 57 24 31 1011.7 1011.9 0.0
23/04:03am 7.6 -2.7 0.0 58 3.0 N 44 57 24 31 1011.8 1012.0 0.0
23/04:00am 7.7 -3.1 -0.2 57 3.1 N 46 56 25 30 1011.8 1012.0 0.0
23/03:30am 7.8 -3.7 0.0 58 3.1 N 50 67 27 36 1011.7 1011.9 0.0
23/03:26am 7.9 -3.2 -0.2 56 3.2 N 48 67 26 36 1011.7 1011.9 0.0
23/03:00am 8.0 -2.7 -0.1 56 3.2 N 46 57 25 31 1012.2 1012.4 0.0
23/02:30am 7.8 -2.3 0.3 59 3.0 N 43 56 23 30 1012.8 1013.0 0.0
23/02:00am 8.4 -1.0 0.1 56 3.3 N 39 48 21 26 1013.1 1013.3 0.0
23/01:30am 7.8 0.2 0.3 59 3.0 N 30 35 16 19 1013.4 1013.6 0.0
23/01:00am 7.5 1.0 0.5 61 2.8 NNE 24 30 13 16 1013.4 1013.6 0.0
23/12:30am 7.6 0.4 0.6 61 2.8 N 28 39 15 21 1013.5 1013.7 0.0
23/12:15am 8.4 -0.6 0.4 57 3.2 N 37 56 20 30 1013.5 1013.7 0.0
23/12:00am 7.9 -1.3 1.0 61 2.8 N 39 52 21 28 1013.7 1013.9 0.0
 
Date/Time
EST
Temp
°C
App
Temp
°C
Dew
Point
°C
Rel
Hum
%
Delta-T
°C
Wind Press
QNH
hPa
Press
MSL
hPa
Rain since
9am
mm
Dir  Spd
km/h
Gust
km/h
Spd
kts
Gust
kts
22/11:30pm 8.4 -1.8 0.7 58 3.1 N 44 65 24 35 1014.0 1014.2 0.0
22/11:09pm 8.4 -1.6 1.0 59 3.0 N 43 61 23 33 1014.1 1014.3 0.0
22/11:00pm 8.4 -2.2 1.0 59 3.0 N 46 61 25 33 1014.1 1014.3 0.0
22/10:36pm 8.5 -2.0 1.2 60 3.0 N 46 72 25 39 1014.3 1014.5 0.0
22/10:30pm 8.6 -1.9 1.3 60 3.0 N 46 59 25 32 1014.3 1014.5 0.0
22/10:00pm 8.5 -3.5 1.5 61 2.9 N 54 76 29 41 1014.4 1014.6 0.0
22/09:40pm 8.5 -1.9 1.8 63 2.8 N 46 65 25 35 1014.6 1014.8 0.0
22/09:30pm 8.5 -1.6 1.8 63 2.8 N 44 59 24 32 1014.7 1014.9 0.0
22/09:00pm 8.5 -2.3 2.0 63 2.7 N 48 61 26 33 1014.5 1014.7 0.0
22/08:30pm 8.5 -2.2 2.3 65 2.6 N 48 61 26 33 1014.5 1014.7 0.0
22/08:16pm 8.7 -1.3 2.3 64 2.7 N 44 63 24 34 1014.7 1014.9 0.0
22/08:00pm 8.8 -1.0 2.4 64 2.7 N 43 59 23 32 1014.7 1014.9 0.0
22/07:30pm 9.0 1.3 2.1 62 2.9 N 32 44 17 24 1015.0 1015.2 0.0
22/07:00pm 9.1 1.2 2.2 62 2.9 N 33 56 18 30 1014.6 1014.8 0.0
22/06:30pm 9.6 1.7 2.0 59 3.2 N 33 54 18 29 1014.5 1014.7 0.0
22/06:11pm 9.7 2.0 2.4 60 3.1 N 32 54 17 29 1014.6 1014.8 0.0
22/06:00pm 9.7 2.0 2.4 60 3.1 N 32 46 17 25 1014.5 1014.7 0.0
22/05:30pm 10.1 1.0 2.1 57 3.4 N 39 61 21 33 1014.0 1014.2 0.0
22/05:00pm 10.6 1.6 2.2 56 3.6 N 39 59 21 32 1013.9 1014.1 0.0
22/04:30pm 10.9 0.1 2.0 54 3.8 N 48 69 26 37 1013.6 1013.8 0.0
22/04:00pm 11.1 0.3 2.0 53 3.9 N 48 74 26 40 1014.2 1014.4 0.0
22/03:30pm 11.0 1.1 1.9 53 3.9 N 43 57 23 31 1014.6 1014.8 0.0
22/03:21pm 10.8 0.9 1.9 54 3.8 N 43 61 23 33 1014.8 1015.0 0.0
22/03:00pm 10.8 1.7 1.6 53 3.9 N 39 56 21 30 1014.9 1015.1 0.0
22/02:55pm 10.9 1.3 1.4 52 4.0 N 41 59 22 32 1015.1 1015.3 0.0
22/02:30pm 10.9 0.8 1.4 52 4.0 N 44 59 24 32 1015.1 1015.3 0.0
22/02:00pm 10.9 1.0 1.7 53 3.9 N 43 56 23 30 1015.6 1015.8 0.0
22/01:30pm 10.6 -0.6 1.9 55 3.7 N 50 63 27 34 1016.2 1016.4 0.0
22/01:00pm 9.9 0.0 1.5 56 3.5 N 43 59 23 32 1016.7 1016.9 0.0
22/12:33pm 10.0 0.5 2.0 57 3.4 N 41 59 22 32 1017.4 1017.6 0.0
22/12:30pm 10.0 0.9 2.0 57 3.4 N 39 54 21 29 1017.4 1017.6 0.0
22/12:00pm 9.9 2.2 2.1 58 3.3 NNE 32 44 17 24 1018.3 1018.4 0.0
22/11:30am 9.1 0.7 1.3 58 3.2 NNE 35 48 19 26 1018.9 1019.1 0.0
22/11:00am 9.6 1.2 1.7 58 3.3 NNE 35 50 19 27 1019.3 1019.5 0.0
22/10:39am 9.3 0.9 1.3 57 3.3 N 35 54 19 29 1019.5 1019.7 0.0
22/10:30am 9.1 0.7 1.6 59 3.1 N 35 50 19 27 1020.0 1020.2 0.0
22/10:07am 8.0 -0.4 1.4 63 2.7 N 35 54 19 29 1020.1 1020.3 0.0
22/10:00am 8.4 -0.4 1.6 62 2.8 N 37 52 20 28 1019.9 1020.1 0.0
22/09:30am 7.4 -3.1 1.2 65 2.5 N 46 63 25 34 1019.3 1019.5 0.0
22/09:04am 7.3 -4.0 1.4 66 2.4 N 50 69 27 37 1019.0 1019.2 0.0
22/09:00am 7.3 -4.0 1.1 65 2.5 N 50 65 27 35 1018.9 1019.1 0.0
22/08:52am 7.1 -3.4 1.4 67 2.3 N 46 65 25 35 1019.1 1019.3 0.0
22/08:30am 6.6 -4.3 1.1 68 2.2 N 48 63 26 34 1019.5 1019.7 0.0
22/08:00am 6.0 -4.0 1.2 71 1.9 N 43 57 23 31 1019.6 1019.8 0.0
22/07:30am 5.7 -4.8 1.2 73 1.8 N 46 59 25 32 1019.3 1019.5 0.0
22/07:05am 5.6 -4.9 1.6 75 1.6 N 46 65 25 35 1019.0 1019.2 0.0
22/07:00am 5.6 -4.9 1.3 74 1.7 N 46 61 25 33 1019.0 1019.2 0.0
22/06:49am 5.4 -4.5 1.7 77 1.5 N 43 63 23 34 1018.9 1019.1 0.0
22/06:30am 5.8 -4.1 1.6 74 1.7 N 43 56 23 30 1019.0 1019.2 0.0
22/06:00am 5.7 -3.8 1.7 75 1.6 N 41 52 22 28 1019.0 1019.2 0.0
22/05:30am 5.5 -3.2 2.0 78 1.4 N 37 50 20 27 1019.1 1019.3 0.0
22/05:00am 5.7 -2.6 2.0 77 1.5 N 35 44 19 24 1019.1 1019.3 0.0
22/04:30am 5.7 -1.7 2.0 77 1.5 N 30 37 16 20 1019.2 1019.4 0.0
22/04:00am 5.6 -1.7 2.2 79 1.4 N 30 41 16 22 1019.1 1019.3 0.0
22/03:30am 5.5 -1.4 2.6 81 1.2 N 28 43 15 23 1019.3 1019.5 0.0
22/03:00am 5.9 -0.6 2.8 80 1.3 N 26 33 14 18 1019.7 1019.9 0.0
22/02:30am 6.4 -0.8 3.1 79 1.4 N 30 39 16 21 1020.2 1020.4 0.0
22/02:17am 6.5 0.1 3.2 79 1.4 N 26 39 14 21 1020.1 1020.3 0.0
22/02:00am 4.4 -0.1 2.4 87 0.8 NNE 15 19 8 10 1020.3 1020.5 0.0
22/01:30am 4.7 -0.1 2.5 86 0.9 N 17 19 9 10 1020.7 1020.9 0.0
22/01:00am 5.3 0.1 2.6 83 1.1 N 19 24 10 13 1021.2 1021.4 0.0
22/12:30am 6.6 0.5 3.0 78 1.5 N 24 37 13 20 1021.3 1021.5 0.0
22/12:00am 6.1 0.1 3.2 82 1.2 N 24 46 13 25 1021.7 1021.9 0.0
 
Date/Time
EST
Temp
°C
App
Temp
°C
Dew
Point
°C
Rel
Hum
%
Delta-T
°C
Wind Press
QNH
hPa
Press
MSL
hPa
Rain since
9am
mm
Dir  Spd
km/h
Gust
km/h
Spd
kts
Gust
kts
21/11:30pm 6.3 1.1 3.7 83 1.1 N 20 26 11 14 1022.0 1022.2 0.0
21/11:00pm 5.8 1.1 3.4 84 1.0 N 17 20 9 11 1022.4 1022.6 0.0
21/10:30pm 6.4 1.7 3.3 80 1.3 N 17 22 9 12 1022.3 1022.5 0.0
21/10:00pm 6.2 1.9 3.1 80 1.3 N 15 20 8 11 1022.2 1022.4 0.0
21/09:30pm 5.9 1.1 2.7 80 1.3 N 17 19 9 10 1022.3 1022.5 0.0
21/09:00pm 5.7 1.6 2.5 80 1.3 N 13 17 7 9 1022.0 1022.2 0.0
21/08:30pm 6.1 1.0 3.0 80 1.3 N 19 24 10 13 1022.2 1022.4 0.0
21/08:00pm 7.3 2.0 3.0 74 1.8 N 20 26 11 14 1022.1 1022.3 0.0
21/07:30pm 7.2 2.5 3.2 76 1.7 N 17 20 9 11 1022.0 1022.2 0.0
21/07:00pm 8.0 2.9 3.1 71 2.1 N 19 22 10 12 1021.8 1022.0 0.0
21/06:30pm 8.9 3.3 3.3 68 2.4 N 22 35 12 19 1021.6 1021.8 0.0
21/06:00pm 8.6 3.3 3.2 69 2.3 NNE 20 26 11 14 1021.2 1021.4 0.0
21/05:30pm 9.8 4.6 3.4 64 2.8 NNE 20 28 11 15 1021.2 1021.4 0.0
21/05:00pm 11.1 6.0 3.9 61 3.2 NNE 20 26 11 14 1021.4 1021.6 0.0
21/04:30pm 12.4 7.2 3.7 55 3.9 NNE 20 26 11 14 1021.3 1021.5 0.0
21/04:00pm 13.1 8.1 3.8 53 4.2 NNE 19 28 10 15 1021.2 1021.4 0.0
21/03:30pm 13.6 8.9 3.1 49 4.7 NE 17 26 9 14 1021.2 1021.4 0.0
21/03:00pm 13.6 9.1 4.2 53 4.3 NE 17 20 9 11 1021.4 1021.6 0.0
21/02:30pm 13.5 10.7 5.2 57 3.9 NNE 9 17 5 9 1021.8 1022.0 0.0
21/02:00pm 13.4 10.2 5.0 57 3.9 NNE 11 15 6 8 1022.0 1022.2 0.0
21/01:30pm 12.0 8.7 4.5 60 3.4 NE 11 17 6 9 1022.5 1022.7 0.0
21/01:00pm 11.7 8.8 4.7 62 3.2 NE 9 13 5 7 1023.0 1023.2 0.0
21/12:30pm 10.9 7.2 4.5 64 2.9 E 13 17 7 9 1023.2 1023.4 0.0
21/12:00pm 10.8 7.7 5.6 70 2.4 ENE 11 17 6 9 1023.8 1024.0 0.0
21/11:30am 10.2 7.9 4.9 69 2.4 ENE 6 9 3 5 1024.3 1024.5 0.0
21/11:00am 10.2 8.0 5.1 70 2.3 NE 6 9 3 5 1024.9 1025.1 0.0
21/10:30am 9.0 7.4 4.7 74 1.9 ENE 2 9 1 5 1025.0 1025.2 0.0
21/10:00am 8.6 6.0 4.3 74 1.9 NE 7 11 4 6 1024.7 1024.9 0.0
21/09:30am 7.8 4.9 4.6 80 1.4 ENE 9 11 5 6 1024.5 1024.7 0.0
21/09:00am 5.1 1.1 2.6 84 1.0 N 13 15 7 8 1024.4 1024.6 1.6
21/08:30am 3.9 -0.5 2.7 92 0.5 N 15 19 8 10 1024.3 1024.5 1.6
21/08:00am 3.7 -0.4 2.4 91 0.5 N 13 17 7 9 1024.1 1024.3 1.6
21/07:30am 2.9 -2.1 1.6 91 0.5 N 17 19 9 10 1023.8 1024.0 1.6
21/07:00am 3.3 -0.8 2.3 93 0.4 N 13 15 7 8 1023.4 1023.6 1.6
21/06:30am 1.8 -2.5 1.0 94 0.3 N 13 15 7 8 1023.1 1023.3 1.6
21/06:00am 1.7 -1.9 0.9 94 0.3 N 9 9 5 5 1022.7 1022.9 1.6
21/05:30am 2.3 -1.2 1.5 94 0.3 NNW 9 13 5 7 1022.4 1022.6 1.6
21/05:00am 3.3 -0.8 2.0 91 0.5 N 13 15 7 8 1022.2 1022.4 1.6

Other Formats:

Comma delimited format used in spreadsheet applications
http://www.bom.gov.au/fwo/IDV60801/IDV60801.94866.axf

JavaScript Object Notation format (JSON) in row-major order
http://www.bom.gov.au/fwo/IDV60801/IDV60801.94866.json